Aviation Digital Data Service (ADDS)

Output produced by METARs form (2240 UTC 26 March 2017)
found at http://bcaws.aviationweather.gov/adds/metars/
 
METAR text: KO22 262235Z AUTO 22006KT 10SM OVC070 15/01 A3012 RMK AO1
Conditions at: KO22 (COLUMBIA , CA, US) observed 2235 UTC 26 March 2017
Temperature: 15.0°C (59°F)
Dewpoint: 1.0°C (34°F) [RH = 39%]
Pressure (altimeter): 30.12 inches Hg (1020.1 mb)
Winds: from the SW (220 degrees) at 7 MPH (6 knots; 3.1 m/s)
Visibility: 10 or more miles (16+ km)
Ceiling: 7000 feet AGL
Clouds: overcast cloud deck at 7000 feet AGL
Weather: automated observation with no human augmentation;
there may or may not be significant weather present at this time